Time;durP1;ratioP1;P1;durP2;ratioP2;P2;SDS_P1;SDS_P2;PMS_P1;PMS_P2;Temp;Humidity;BMP_temperature;BMP_pressure;BME280_temperature;BME280_humidity;BME280_pressure;Samples;Min_cycle;Max_cycle;Signal;HPM_P1;HPM_P2
2023/04/07 00:01:34;;;;;;;8.20;8.00;;;20.50;49.90;;;;;;5093178;28;20485;-51
2023/04/07 00:04:01;;;;;;;8.27;8.07;;;20.50;49.90;;;;;;5093467;28;20470;-51
2023/04/07 00:06:28;;;;;;;7.73;7.53;;;20.50;50.00;;;;;;5093456;28;20530;-56
2023/04/07 00:08:54;;;;;;;7.50;7.40;;;20.50;50.00;;;;;;5093332;28;20442;-54
2023/04/07 00:11:21;;;;;;;7.60;7.40;;;20.40;49.90;;;;;;5092956;28;20486;-53
2023/04/07 00:13:50;;;;;;;8.00;7.80;;;20.40;50.00;;;;;;5093328;28;20591;-50
2023/04/07 00:16:16;;;;;;;7.90;7.70;;;20.40;50.00;;;;;;5093395;28;20481;-50
2023/04/07 00:18:43;;;;;;;8.03;7.83;;;20.40;50.10;;;;;;5093005;28;20446;-52
2023/04/07 00:21:10;;;;;;;7.90;7.70;;;20.40;50.10;;;;;;5092927;28;20474;-54
2023/04/07 00:23:38;;;;;;;8.33;8.07;;;20.40;50.10;;;;;;5092150;28;20562;-55
2023/04/07 00:26:05;;;;;;;8.77;8.53;;;20.40;50.10;;;;;;5093045;28;20446;-53
2023/04/07 00:28:31;;;;;;;7.93;7.77;;;20.40;50.20;;;;;;5092948;28;20872;-54
2023/04/07 00:31:00;;;;;;;8.63;8.43;;;20.40;50.20;;;;;;5092625;28;20888;-53
2023/04/07 00:33:27;;;;;;;7.70;7.60;;;20.30;50.10;;;;;;5092744;28;20552;-53
2023/04/07 00:35:54;;;;;;;8.00;7.80;;;20.30;50.20;;;;;;5092993;28;20474;-53
2023/04/07 00:38:21;;;;;;;7.70;7.60;;;20.30;50.30;;;;;;5092669;28;20442;-54
2023/04/07 00:40:47;;;;;;;7.60;7.40;;;20.30;50.30;;;;;;5092449;28;20449;-51
2023/04/07 00:43:14;;;;;;;8.20;8.00;;;20.30;50.40;;;;;;5092628;28;20565;-50
2023/04/07 00:45:42;;;;;;;7.77;7.57;;;20.30;50.40;;;;;;5092663;28;20485;-53
2023/04/07 00:48:10;;;;;;;7.80;7.60;;;20.20;50.40;;;;;;5092431;28;20507;-54
2023/04/07 00:50:37;;;;;;;7.70;7.50;;;20.30;50.40;;;;;;5092363;28;20869;-56
2023/04/07 00:53:05;;;;;;;7.73;7.60;;;20.30;50.40;;;;;;5092224;28;20486;-52
2023/04/07 00:55:32;;;;;;;8.40;8.20;;;20.20;50.30;;;;;;5092514;28;20529;-50
2023/04/07 00:57:59;;;;;;;7.67;7.57;;;20.20;50.40;;;;;;5092383;28;20691;-54
2023/04/07 01:00:27;;;;;;;7.53;7.43;;;20.20;50.50;;;;;;5092425;28;20859;-52
2023/04/07 01:02:59;;;;;;;7.90;7.70;;;20.20;50.50;;;;;;5091846;28;20573;-56
2023/04/07 01:05:36;;;;;;;7.50;7.40;;;20.10;50.40;;;;;;5092377;28;20486;-51
2023/04/07 01:08:12;;;;;;;7.37;7.27;;;20.20;50.60;;;;;;5092125;28;20482;-53
2023/04/07 01:10:47;;;;;;;7.20;7.10;;;20.10;50.50;;;;;;5092288;28;20470;-55
2023/04/07 01:13:22;;;;;;;7.40;7.30;;;20.10;50.60;;;;;;5092196;28;20501;-54
2023/04/07 01:15:55;;;;;;;7.37;7.27;;;20.10;50.70;;;;;;5092343;28;20442;-54
2023/04/07 01:18:29;;;;;;;7.57;7.40;;;20.10;50.70;;;;;;5092054;28;20438;-53
2023/04/07 01:21:03;;;;;;;7.23;7.13;;;20.10;50.70;;;;;;5091841;28;21010;-56
2023/04/07 01:23:41;;;;;;;7.67;7.47;;;20.00;50.70;;;;;;5091962;28;20485;-53
2023/04/07 01:26:19;;;;;;;7.33;7.23;;;20.00;50.80;;;;;;5092153;28;20442;-51
2023/04/07 01:29:24;;;;;;;7.00;6.90;;;20.00;50.80;;;;;;5091862;28;20478;-51
2023/04/07 01:31:52;;;;;;;7.73;7.60;;;20.00;50.80;;;;;;5092015;28;20465;-53
2023/04/07 01:34:19;;;;;;;7.70;7.50;;;20.00;50.80;;;;;;5091775;28;20509;-51
2023/04/07 01:36:48;;;;;;;7.50;7.30;;;19.90;50.90;;;;;;5090078;28;20446;-52
2023/04/07 01:39:16;;;;;;;8.57;8.27;;;20.00;51.00;;;;;;5091708;28;20474;-54
2023/04/07 01:41:44;;;;;;;7.93;7.73;;;19.90;51.00;;;;;;5091748;28;20474;-52
2023/04/07 01:44:11;;;;;;;7.27;7.10;;;19.90;51.00;;;;;;5091761;28;20853;-51
2023/04/07 01:46:40;;;;;;;8.10;7.90;;;19.90;51.00;;;;;;5090548;28;20478;-52
2023/04/07 01:49:07;;;;;;;7.80;7.60;;;19.90;51.00;;;;;;5071637;28;20450;-55
2023/04/07 01:51:34;;;;;;;8.17;7.97;;;19.90;51.00;;;;;;5071497;28;20984;-53
2023/04/07 01:54:02;;;;;;;7.80;7.60;;;19.90;51.00;;;;;;5071479;28;20463;-50
2023/04/07 01:56:29;;;;;;;7.70;7.50;;;19.80;50.90;;;;;;5071604;28;20475;-51
2023/04/07 01:58:56;;;;;;;7.80;7.60;;;19.90;51.00;;;;;;5071096;28;20538;-52
2023/04/07 02:01:23;;;;;;;7.33;7.13;;;19.90;51.10;;;;;;5072233;28;20530;-53
2023/04/07 02:03:56;;;;;;;8.03;7.70;;;19.80;51.00;;;;;;5075551;28;20575;-51
2023/04/07 02:06:29;;;;;;;7.53;7.43;;;19.90;51.10;;;;;;5087574;28;20485;-51
2023/04/07 02:09:02;;;;;;;7.83;7.63;;;19.80;51.10;;;;;;5095604;28;20515;-55
2023/04/07 02:11:32;;;;;;;7.30;7.10;;;19.90;51.10;;;;;;5095784;28;20445;-52
2023/04/07 02:14:01;;;;;;;7.17;7.07;;;19.80;51.10;;;;;;5095579;28;20845;-53
2023/04/07 02:16:29;;;;;;;7.63;7.43;;;19.80;51.10;;;;;;5095242;28;20450;-50
2023/04/07 02:18:59;;;;;;;7.80;7.60;;;19.80;51.10;;;;;;5095513;28;20825;-52
2023/04/07 02:21:27;;;;;;;7.60;7.50;;;19.80;51.10;;;;;;5095415;28;20477;-51
2023/04/07 02:23:54;;;;;;;7.97;7.77;;;19.80;51.20;;;;;;5095270;28;20510;-52
2023/04/07 02:26:21;;;;;;;7.30;7.10;;;19.70;51.10;;;;;;5095119;28;20451;-51
2023/04/07 02:28:47;;;;;;;7.53;7.33;;;19.80;51.20;;;;;;5095111;28;20482;-51
2023/04/07 02:31:15;;;;;;;8.47;8.27;;;19.80;51.10;;;;;;5095424;28;20489;-51
2023/04/07 02:33:41;;;;;;;7.10;7.00;;;19.70;51.10;;;;;;5094834;28;20474;-53
2023/04/07 02:36:10;;;;;;;7.80;7.60;;;19.70;51.10;;;;;;5095335;28;20478;-54
2023/04/07 02:38:37;;;;;;;7.70;7.50;;;19.70;51.10;;;;;;5094920;28;20477;-53
2023/04/07 02:41:03;;;;;;;7.50;7.30;;;19.70;51.10;;;;;;5095134;28;20450;-54
2023/04/07 02:43:30;;;;;;;7.47;7.27;;;19.70;51.10;;;;;;5094565;28;21068;-53
2023/04/07 02:45:57;;;;;;;7.70;7.50;;;19.70;51.20;;;;;;5095147;28;20945;-52
2023/04/07 02:48:24;;;;;;;7.40;7.20;;;19.70;51.10;;;;;;5094788;28;20926;-52
2023/04/07 02:50:51;;;;;;;7.60;7.40;;;19.70;51.70;;;;;;5095026;28;20478;-53
2023/04/07 02:53:19;;;;;;;7.87;7.67;;;19.70;51.20;;;;;;5094810;28;20490;-51
2023/04/07 02:55:46;;;;;;;7.80;7.60;;;19.70;51.20;;;;;;5074577;28;20992;-52
2023/04/07 02:58:13;;;;;;;7.70;7.50;;;19.70;51.10;;;;;;5074302;28;20482;-52
2023/04/07 03:00:40;;;;;;;8.30;8.10;;;19.70;51.10;;;;;;5074535;28;20877;-49
2023/04/07 03:03:07;;;;;;;7.50;7.30;;;19.70;51.10;;;;;;5074295;28;20906;-55
2023/04/07 03:05:34;;;;;;;7.17;7.07;;;19.60;51.10;;;;;;5074386;28;20470;-50
2023/04/07 03:08:01;;;;;;;7.50;7.30;;;19.60;51.10;;;;;;5074192;28;20453;-50
2023/04/07 03:10:29;;;;;;;7.90;7.70;;;19.60;51.10;;;;;;5074259;28;20486;-51
2023/04/07 03:12:56;;;;;;;7.20;7.00;;;19.60;51.10;;;;;;5073677;28;20507;-54
2023/04/07 03:15:23;;;;;;;7.37;7.10;;;19.60;51.10;;;;;;5074167;28;20981;-51
2023/04/07 03:17:50;;;;;;;8.30;8.10;;;19.60;51.10;;;;;;5074176;28;20482;-50
2023/04/07 03:20:17;;;;;;;7.70;7.50;;;19.60;51.10;;;;;;5074067;28;20486;-53
2023/04/07 03:22:46;;;;;;;7.37;7.17;;;19.60;51.10;;;;;;5074066;28;20526;-51
2023/04/07 03:25:13;;;;;;;7.80;7.60;;;19.60;51.10;;;;;;5088127;28;20450;-52
2023/04/07 03:27:41;;;;;;;7.63;7.43;;;19.50;51.00;;;;;;5093970;28;20474;-52
2023/04/07 03:30:09;;;;;;;8.30;8.10;;;19.60;51.10;;;;;;5094266;28;20482;-50
2023/04/07 03:32:36;;;;;;;7.33;7.13;;;19.60;51.10;;;;;;5093976;28;20538;-52
2023/04/07 03:35:03;;;;;;;6.90;6.80;;;19.60;51.10;;;;;;5093919;28;20481;-51
2023/04/07 03:37:30;;;;;;;7.77;7.47;;;19.50;51.10;;;;;;5093884;28;20472;-51
2023/04/07 03:39:56;;;;;;;7.40;7.20;;;19.50;51.30;;;;;;5093942;28;20474;-52
2023/04/07 03:42:23;;;;;;;7.20;6.80;;;19.50;51.40;;;;;;5093754;28;20478;-51
2023/04/07 03:44:52;;;;;;;7.10;6.90;;;19.60;51.60;;;;;;5093470;28;20513;-50
2023/04/07 03:47:19;;;;;;;7.50;7.30;;;19.60;52.00;;;;;;5093790;28;20454;-51
2023/04/07 03:49:46;;;;;;;6.80;6.70;;;19.60;51.30;;;;;;5093779;28;20454;-51
2023/04/07 03:52:12;;;;;;;7.40;7.20;;;19.60;51.30;;;;;;5093513;28;20607;-50
2023/04/07 03:54:39;;;;;;;6.97;6.80;;;19.60;51.30;;;;;;5093615;28;20490;-53
2023/04/07 03:57:06;;;;;;;7.00;6.80;;;19.60;51.20;;;;;;5093560;28;20474;-54
2023/04/07 03:59:33;;;;;;;7.10;6.90;;;19.60;51.10;;;;;;5093552;28;20493;-52
2023/04/07 04:02:01;;;;;;;8.00;7.80;;;19.60;51.20;;;;;;5093304;28;20482;-51
2023/04/07 04:04:28;;;;;;;6.67;6.57;;;19.60;51.20;;;;;;5093304;28;20570;-52
2023/04/07 04:06:55;;;;;;;7.43;7.23;;;19.60;51.30;;;;;;5093263;28;20486;-52
2023/04/07 04:09:22;;;;;;;7.47;7.27;;;19.60;51.30;;;;;;5093446;28;20478;-53
2023/04/07 04:11:49;;;;;;;7.00;6.80;;;19.60;51.40;;;;;;5093255;28;20475;-50
2023/04/07 04:14:16;;;;;;;7.00;6.80;;;19.50;51.40;;;;;;5093249;28;20467;-52
2023/04/07 04:16:43;;;;;;;7.30;7.10;;;19.50;51.50;;;;;;5093134;28;20485;-51
2023/04/07 04:19:11;;;;;;;7.57;7.33;;;19.60;51.60;;;;;;5093319;28;20529;-55
2023/04/07 04:21:38;;;;;;;7.77;7.47;;;19.50;51.50;;;;;;5092925;28;20880;-54
2023/04/07 04:24:05;;;;;;;6.60;6.50;;;19.50;51.30;;;;;;5092220;28;20525;-56
2023/04/07 04:26:32;;;;;;;7.60;7.40;;;19.50;51.40;;;;;;5093024;28;20478;-58
2023/04/07 04:28:59;;;;;;;7.43;7.33;;;19.60;51.50;;;;;;5093115;28;20486;-51
2023/04/07 04:31:26;;;;;;;7.27;7.07;;;19.60;51.60;;;;;;5092856;28;20446;-51
2023/04/07 04:33:53;;;;;;;6.80;6.60;;;19.60;51.80;;;;;;5092717;28;21065;-57
2023/04/07 04:36:21;;;;;;;7.40;7.30;;;19.70;52.10;;;;;;5092935;28;20949;-53
2023/04/07 04:38:48;;;;;;;7.50;7.30;;;19.70;52.40;;;;;;5092686;28;20485;-53
2023/04/07 04:41:15;;;;;;;6.80;6.70;;;19.80;52.70;;;;;;5092524;28;20478;-58
2023/04/07 04:43:42;;;;;;;8.00;7.67;;;19.80;52.70;;;;;;5090655;28;20517;-58
2023/04/07 04:46:09;;;;;;;7.17;7.07;;;19.90;55.10;;;;;;5092187;28;20446;-56
2023/04/07 04:48:36;;;;;;;7.07;6.97;;;20.00;53.70;;;;;;5092457;28;20538;-54
2023/04/07 04:51:03;;;;;;;7.40;7.20;;;20.00;53.20;;;;;;5087962;28;20502;-55
2023/04/07 04:53:31;;;;;;;7.37;7.27;;;20.10;53.10;;;;;;5072207;28;20492;-53
2023/04/07 04:55:58;;;;;;;7.27;7.07;;;20.10;52.90;;;;;;5078294;28;20530;-55
2023/04/07 04:58:25;;;;;;;7.50;7.30;;;20.20;52.80;;;;;;5083433;28;20588;-55
2023/04/07 05:00:56;;;;;;;7.60;7.40;;;20.30;52.80;;;;;;5092496;28;20862;-54
2023/04/07 05:03:24;;;;;;;7.37;7.27;;;20.30;52.60;;;;;;5092294;28;20512;-55
2023/04/07 05:05:51;;;;;;;7.57;7.37;;;20.40;52.60;;;;;;5092464;28;21014;-56
2023/04/07 05:08:18;;;;;;;7.40;7.30;;;20.40;52.50;;;;;;5082410;28;20482;-54
2023/04/07 05:10:48;;;;;;;7.70;7.50;;;20.40;52.30;;;;;;5072079;28;20475;-56
2023/04/07 05:13:15;;;;;;;7.97;7.77;;;20.50;52.30;;;;;;5071922;28;20521;-54
2023/04/07 05:15:42;;;;;;;7.30;7.20;;;20.60;52.20;;;;;;5072003;28;20491;-53
2023/04/07 05:18:09;;;;;;;7.07;6.87;;;20.60;52.10;;;;;;5075511;28;20462;-54
2023/04/07 05:20:36;;;;;;;7.00;6.80;;;20.60;52.10;;;;;;5064328;28;20957;-52
2023/04/07 05:23:03;;;;;;;7.83;7.63;;;20.60;52.00;;;;;;5071619;28;20502;-55
2023/04/07 05:25:31;;;;;;;7.53;7.37;;;20.60;52.00;;;;;;5071840;28;20521;-51
2023/04/07 05:27:59;;;;;;;7.30;7.20;;;20.70;52.00;;;;;;5071642;28;20878;-54
2023/04/07 05:30:26;;;;;;;7.10;7.00;;;20.70;52.00;;;;;;5071926;28;20447;-52
2023/04/07 05:32:54;;;;;;;7.47;7.37;;;20.70;52.00;;;;;;5072115;28;20471;-52
2023/04/07 05:35:20;;;;;;;7.10;7.00;;;20.70;52.00;;;;;;5071603;28;20439;-53
2023/04/07 05:37:47;;;;;;;7.00;6.90;;;20.70;52.00;;;;;;5075455;28;20486;-56
2023/04/07 05:40:14;;;;;;;7.40;7.20;;;20.70;52.00;;;;;;5060281;28;20479;-59
2023/04/07 05:42:41;;;;;;;8.00;7.70;;;20.70;52.00;;;;;;5071893;28;20479;-55
2023/04/07 05:45:11;;;;;;;7.27;7.07;;;20.80;53.00;;;;;;5072387;28;20522;-57
2023/04/07 05:47:38;;;;;;;7.80;7.70;;;20.80;52.20;;;;;;5075219;28;20453;-51
2023/04/07 05:50:05;;;;;;;8.00;7.80;;;20.80;51.90;;;;;;5093096;28;20488;-55
2023/04/07 05:52:32;;;;;;;7.13;7.03;;;20.90;52.00;;;;;;5092999;28;20439;-57
2023/04/07 05:54:59;;;;;;;7.97;7.77;;;20.90;51.90;;;;;;5093023;28;20469;-55
2023/04/07 05:57:27;;;;;;;7.90;7.73;;;21.00;52.20;;;;;;5092418;28;20477;-57
2023/04/07 05:59:54;;;;;;;8.00;7.83;;;21.10;52.10;;;;;;5092774;28;20446;-58
2023/04/07 06:02:22;;;;;;;7.70;7.50;;;21.20;51.90;;;;;;5092924;28;20453;-56
2023/04/07 06:04:49;;;;;;;7.83;7.73;;;21.20;51.70;;;;;;5092612;28;20522;-55
2023/04/07 06:07:16;;;;;;;8.20;8.00;;;21.30;51.60;;;;;;5091944;28;20446;-54
2023/04/07 06:09:43;;;;;;;8.00;7.90;;;21.30;51.50;;;;;;5092724;28;20489;-54
2023/04/07 06:12:11;;;;;;;8.40;8.20;;;21.40;51.40;;;;;;5081208;28;20850;-53
2023/04/07 06:14:38;;;;;;;8.37;8.17;;;21.40;51.20;;;;;;5072418;28;20505;-54
2023/04/07 06:17:05;;;;;;;8.03;7.83;;;21.40;51.30;;;;;;5071983;28;20878;-57
2023/04/07 06:19:33;;;;;;;9.07;8.87;;;21.50;52.20;;;;;;5072254;28;20471;-57
2023/04/07 06:22:00;;;;;;;8.77;8.57;;;21.40;52.00;;;;;;5072031;28;20482;-56
2023/04/07 06:24:27;;;;;;;8.53;8.33;;;21.50;51.90;;;;;;5085447;28;20585;-55
2023/04/07 06:26:55;;;;;;;8.80;8.50;;;21.50;52.00;;;;;;5092339;28;20482;-57
2023/04/07 06:29:22;;;;;;;8.63;8.43;;;21.60;51.70;;;;;;5092324;28;20435;-58
2023/04/07 06:31:52;;;;;;;8.77;8.57;;;21.70;52.00;;;;;;5092179;28;20477;-59
2023/04/07 06:34:23;;;;;;;9.00;8.80;;;21.70;51.90;;;;;;5091054;28;20506;-57
2023/04/07 06:36:54;;;;;;;9.10;8.80;;;21.80;52.50;;;;;;5091899;28;20482;-58
2023/04/07 06:39:21;;;;;;;9.80;9.50;;;21.80;51.90;;;;;;5092179;28;20446;-58
2023/04/07 06:41:48;;;;;;;8.57;8.37;;;21.80;51.60;;;;;;5092596;28;20442;-56
2023/04/07 06:44:15;;;;;;;8.77;8.57;;;21.90;51.30;;;;;;5080860;28;20570;-55
2023/04/07 06:46:43;;;;;;;6.60;6.40;;;21.90;51.00;;;;;;5070839;28;20492;-56
2023/04/07 06:49:10;;;;;;;8.60;8.40;;;22.00;50.80;;;;;;5075694;28;20457;-64
2023/04/07 06:51:37;;;;;;;8.50;8.30;;;22.10;50.50;;;;;;5076037;28;20493;-58
2023/04/07 06:54:11;;;;;;;8.57;8.27;;;22.10;50.20;;;;;;5075262;28;20495;-60
2023/04/07 06:56:38;;;;;;;8.57;8.37;;;22.10;50.10;;;;;;5075759;28;20454;-57
2023/04/07 06:59:05;;;;;;;7.90;7.73;;;22.10;49.90;;;;;;5076105;28;20817;-60
2023/04/07 07:01:32;;;;;;;7.90;7.80;;;22.10;49.90;;;;;;5075710;28;20938;-60
2023/04/07 07:04:00;;;;;;;8.03;7.83;;;22.20;49.90;;;;;;5075567;28;20574;-59
2023/04/07 07:06:27;;;;;;;8.67;8.47;;;22.20;49.80;;;;;;5075607;28;20465;-54
2023/04/07 07:08:54;;;;;;;8.50;8.30;;;22.20;49.80;;;;;;5075297;28;20508;-54
2023/04/07 07:11:22;;;;;;;8.67;8.47;;;22.20;49.80;;;;;;5075310;28;20469;-53
2023/04/07 07:13:50;;;;;;;8.40;8.20;;;22.30;49.80;;;;;;5081376;28;20498;-56
2023/04/07 07:16:16;;;;;;;9.87;9.50;;;22.30;49.70;;;;;;5095698;28;20445;-53
2023/04/07 07:18:44;;;;;;;8.33;8.13;;;22.30;50.20;;;;;;5095191;28;20442;-53
2023/04/07 07:21:11;;;;;;;8.73;8.40;;;22.20;49.60;;;;;;5095523;28;20470;-57
2023/04/07 07:23:38;;;;;;;9.40;9.10;;;22.30;49.70;;;;;;5090817;28;20505;-59
2023/04/07 07:26:05;;;;;;;9.50;9.27;;;22.40;49.80;;;;;;5075584;28;20522;-62
2023/04/07 07:28:34;;;;;;;9.13;8.87;;;22.40;49.70;;;;;;5075413;28;20950;-53
2023/04/07 07:31:00;;;;;;;8.57;8.37;;;22.50;49.70;;;;;;5075172;28;20443;-55
2023/04/07 07:33:27;;;;;;;9.50;9.30;;;22.40;49.40;;;;;;5076864;28;20471;-57
2023/04/07 07:35:54;;;;;;;9.30;9.10;;;22.50;49.70;;;;;;5095566;28;20837;-58
2023/04/07 07:38:21;;;;;;;9.27;9.07;;;22.50;49.80;;;;;;5094900;28;20533;-60
2023/04/07 07:40:48;;;;;;;9.57;9.30;;;22.50;49.80;;;;;;5095199;28;20539;-56
2023/04/07 07:43:16;;;;;;;9.73;9.53;;;22.50;49.70;;;;;;5094868;28;20893;-56
2023/04/07 07:45:45;;;;;;;9.20;9.00;;;22.50;49.60;;;;;;5074265;28;20489;-57
2023/04/07 07:48:12;;;;;;;9.50;9.30;;;22.60;49.70;;;;;;5074211;28;20475;-54
2023/04/07 07:50:38;;;;;;;9.30;9.10;;;22.60;49.60;;;;;;5074584;28;20506;-57
2023/04/07 07:53:05;;;;;;;9.57;9.37;;;22.60;49.60;;;;;;5074177;28;20803;-58
2023/04/07 07:55:32;;;;;;;9.70;9.50;;;22.60;49.50;;;;;;5075652;28;20482;-57
2023/04/07 07:57:59;;;;;;;11.37;11.07;;;22.60;49.40;;;;;;5074165;28;20479;-55
2023/04/07 08:00:27;;;;;;;9.93;9.73;;;22.60;49.50;;;;;;5073904;28;20543;-65
2023/04/07 08:02:55;;;;;;;10.60;10.30;;;22.60;49.50;;;;;;5074079;28;20597;-56
2023/04/07 08:05:22;;;;;;;9.40;9.10;;;22.60;49.50;;;;;;5089078;28;20513;-58
2023/04/07 08:07:49;;;;;;;10.90;10.60;;;22.60;49.20;;;;;;5094453;28;20478;-55
2023/04/07 08:10:16;;;;;;;9.70;9.50;;;22.60;49.30;;;;;;5094553;28;20470;-58
2023/04/07 08:12:43;;;;;;;10.30;10.00;;;22.50;49.20;;;;;;5094193;28;20481;-57
2023/04/07 08:15:11;;;;;;;10.17;9.87;;;22.50;49.10;;;;;;5083535;28;20968;-58
2023/04/07 08:17:38;;;;;;;9.87;9.57;;;22.50;49.90;;;;;;5073692;28;20950;-56
2023/04/07 08:20:09;;;;;;;7.95;7.65;;;22.50;49.80;;;;;;5073088;28;20529;-56
2023/04/07 08:22:36;;;;;;;9.47;9.17;;;22.50;49.80;;;;;;5073640;28;20204;-60
2023/04/07 08:25:03;;;;;;;9.80;9.50;;;22.60;49.90;;;;;;5074084;28;20511;-58
2023/04/07 08:27:31;;;;;;;9.20;9.00;;;22.60;49.70;;;;;;5073938;28;20443;-60
2023/04/07 08:30:00;;;;;;;9.27;9.07;;;22.60;49.70;;;;;;5074473;28;20773;-60
2023/04/07 08:32:35;;;;;;;10.07;9.77;;;22.60;49.70;;;;;;5074227;28;20490;-59
2023/04/07 08:35:02;;;;;;;9.53;9.33;;;22.60;49.70;;;;;;5075270;28;20530;-61
2023/04/07 08:37:30;;;;;;;9.70;9.50;;;22.60;49.70;;;;;;5073770;28;20435;-60
2023/04/07 08:39:57;;;;;;;9.57;9.37;;;22.60;49.80;;;;;;5073442;28;20493;-56
2023/04/07 08:42:29;;;;;;;9.67;9.43;;;22.60;49.80;;;;;;5073265;28;20500;-55
2023/04/07 08:44:58;;;;;;;10.43;10.13;;;22.60;49.60;;;;;;5073100;28;20896;-54
2023/04/07 08:47:26;;;;;;;9.40;9.20;;;22.70;49.70;;;;;;5073170;28;20447;-56
2023/04/07 08:49:56;;;;;;;9.40;9.20;;;22.60;49.50;;;;;;5073461;28;20877;-57
2023/04/07 08:52:33;;;;;;;10.00;9.70;;;22.60;49.50;;;;;;5074424;28;20923;-55
2023/04/07 08:55:02;;;;;;;10.07;9.77;;;22.60;49.60;;;;;;5093389;28;20438;-58
2023/04/07 08:57:31;;;;;;;9.80;9.37;;;22.60;49.50;;;;;;5093845;28;20438;-57
2023/04/07 09:00:01;;;;;;;8.52;8.23;;;22.60;50.70;;;;;;5092404;28;20439;-57
2023/04/07 09:02:28;;;;;;;9.97;9.57;;;22.60;50.30;;;;;;5093076;28;20559;-57
2023/04/07 09:04:56;;;;;;;9.63;9.33;;;22.60;50.00;;;;;;5072860;28;20575;-58
2023/04/07 09:07:22;;;;;;;9.53;9.13;;;22.70;50.50;;;;;;5072247;28;20434;-59
2023/04/07 09:09:49;;;;;;;9.00;8.70;;;22.70;50.80;;;;;;5072833;28;20929;-58
2023/04/07 09:12:18;;;;;;;10.97;10.57;;;22.70;50.60;;;;;;5073147;28;20200;-56
2023/04/07 09:14:45;;;;;;;9.73;9.50;;;22.70;50.20;;;;;;5092533;28;21061;-52
2023/04/07 09:17:12;;;;;;;10.93;10.53;;;22.80;50.50;;;;;;5093031;28;20477;-54
2023/04/07 09:19:39;;;;;;;11.03;10.73;;;22.80;51.00;;;;;;5093378;28;20878;-58
2023/04/07 09:22:07;;;;;;;10.73;10.07;;;22.80;51.20;;;;;;5093188;28;20476;-59
2023/04/07 09:24:34;;;;;;;12.13;11.43;;;22.80;51.60;;;;;;5075299;28;20498;-57
2023/04/07 09:27:12;;;;;;;12.10;11.50;;;22.80;51.70;;;;;;5072566;28;20852;-57
2023/04/07 09:29:41;;;;;;;12.33;11.90;;;22.80;51.80;;;;;;5072862;28;20478;-55
2023/04/07 09:32:08;;;;;;;10.63;10.30;;;22.80;51.70;;;;;;5072584;28;20526;-54
2023/04/07 09:34:37;;;;;;;10.70;10.40;;;22.80;51.60;;;;;;5072557;28;20503;-56
2023/04/07 09:37:06;;;;;;;10.80;10.30;;;22.80;51.50;;;;;;5072730;28;20447;-57
2023/04/07 09:39:33;;;;;;;10.80;10.50;;;22.90;51.40;;;;;;5087808;28;20478;-56
2023/04/07 09:42:07;;;;;;;10.70;10.40;;;22.80;51.30;;;;;;5092926;28;20855;-57
2023/04/07 09:44:41;;;;;;;11.40;10.70;;;22.90;51.30;;;;;;5075907;28;20463;-58
2023/04/07 09:47:08;;;;;;;10.60;10.20;;;22.80;51.30;;;;;;5052550;28;20463;-62
2023/04/07 09:49:49;;;;;;;12.87;12.20;;;22.90;51.30;;;;;;5053023;28;20494;-63
2023/04/07 09:52:17;;;;;;;10.60;10.30;;;22.90;52.00;;;;;;5052569;28;20448;-55
2023/04/07 09:54:44;;;;;;;10.70;10.40;;;22.90;51.40;;;;;;5070624;28;20940;-55
2023/04/07 09:57:12;;;;;;;10.60;10.30;;;22.90;51.30;;;;;;5072158;28;20473;-57
2023/04/07 09:59:43;;;;;;;10.83;10.30;;;22.90;51.20;;;;;;5072532;28;20447;-53
2023/04/07 10:02:11;;;;;;;10.80;10.50;;;22.90;51.60;;;;;;5072862;28;20809;-55
2023/04/07 10:04:39;;;;;;;10.80;10.50;;;22.90;51.00;;;;;;5088225;28;20494;-56
2023/04/07 10:07:06;;;;;;;10.40;10.17;;;23.00;51.00;;;;;;5092837;28;20446;-52
2023/04/07 10:09:33;;;;;;;10.83;10.53;;;23.00;51.00;;;;;;5093077;28;20466;-57
2023/04/07 10:12:00;;;;;;;11.00;10.70;;;23.00;51.00;;;;;;5084928;28;20472;-56
2023/04/07 10:14:29;;;;;;;10.53;10.33;;;23.00;50.90;;;;;;5072720;28;20490;-59
2023/04/07 10:17:00;;;;;;;10.10;9.80;;;23.00;51.60;;;;;;5072631;28;20439;-55
2023/04/07 10:19:30;;;;;;;11.63;11.17;;;23.00;51.10;;;;;;5073582;28;20465;-56
2023/04/07 10:21:58;;;;;;;10.30;10.00;;;23.00;51.00;;;;;;5087754;28;20449;-55
2023/04/07 10:24:44;;;;;;;10.40;10.10;;;23.00;51.00;;;;;;5105121;28;20465;-55
2023/04/07 10:27:14;;;;;;;10.40;10.00;;;23.00;51.00;;;;;;5098423;28;20937;-56
2023/04/07 10:29:44;;;;;;;11.70;11.30;;;23.10;51.00;;;;;;5095035;28;20477;-57
2023/04/07 10:32:13;;;;;;;10.43;10.03;;;23.00;51.00;;;;;;5081587;28;20446;-58
2023/04/07 10:35:01;;;;;;;10.43;9.93;;;23.10;50.90;;;;;;5083659;28;20474;-54
2023/04/07 10:37:28;;;;;;;10.70;10.30;;;23.10;50.80;;;;;;5075571;28;20461;-52
2023/04/07 10:40:34;;;;;;;10.63;10.33;;;23.10;50.70;;;;;;5075867;28;20581;-52
2023/04/07 10:43:01;;;;;;;10.80;10.50;;;23.10;50.60;;;;;;5067978;28;20483;-53
2023/04/07 10:45:55;;;;;;;10.10;9.80;;;23.10;50.70;;;;;;5075925;28;20482;-57
2023/04/07 10:48:23;;;;;;;10.20;9.90;;;23.10;50.60;;;;;;5075537;28;20454;-57
2023/04/07 10:51:16;;;;;;;10.10;9.83;;;23.10;50.60;;;;;;5088631;28;20538;-56
2023/04/07 10:54:21;;;;;;;10.00;9.80;;;23.10;50.50;;;;;;5096015;28;20469;-55
2023/04/07 10:57:09;;;;;;;11.13;10.73;;;23.10;50.50;;;;;;5095725;28;20457;-59
2023/04/07 10:59:37;;;;;;;10.67;10.37;;;23.20;50.60;;;;;;5093713;28;21052;-56
2023/04/07 11:02:35;;;;;;;10.90;10.60;;;23.20;50.50;;;;;;5075510;28;20482;-59
2023/04/07 11:05:04;;;;;;;11.00;10.70;;;23.20;50.50;;;;;;5075479;28;20443;-59
2023/04/07 11:07:56;;;;;;;10.33;10.03;;;23.20;50.40;;;;;;5075283;28;20475;-57
2023/04/07 11:10:23;;;;;;;10.80;10.50;;;23.20;50.40;;;;;;5075283;28;20447;-57
2023/04/07 11:13:01;;;;;;;9.90;9.70;;;23.20;50.30;;;;;;5090948;28;20475;-59
2023/04/07 11:15:28;;;;;;;10.30;10.00;;;23.30;50.40;;;;;;5095720;28;20869;-57
2023/04/07 11:18:16;;;;;;;9.93;9.73;;;23.20;50.20;;;;;;5095334;28;20990;-57
2023/04/07 11:20:51;;;;;;;10.27;9.97;;;23.20;50.20;;;;;;5094925;28;20446;-56
2023/04/07 11:23:19;;;;;;;10.70;10.40;;;23.20;50.20;;;;;;5095310;28;21019;-60
2023/04/07 11:25:48;;;;;;;10.80;10.50;;;23.20;50.40;;;;;;5095149;28;20478;-62
2023/04/07 11:28:16;;;;;;;10.93;10.63;;;23.20;50.50;;;;;;5095279;28;21036;-62
2023/04/07 11:30:49;;;;;;;10.50;10.20;;;23.30;50.90;;;;;;5081079;28;20448;-60
2023/04/07 11:33:17;;;;;;;10.80;10.50;;;23.30;51.10;;;;;;5075082;28;20482;-57
2023/04/07 11:35:50;;;;;;;10.30;10.00;;;23.30;50.80;;;;;;5075180;28;20530;-60
2023/04/07 11:38:17;;;;;;;11.20;10.90;;;23.20;50.40;;;;;;5074565;28;20517;-60
2023/04/07 11:40:44;;;;;;;10.13;9.93;;;23.20;50.60;;;;;;5088138;28;20965;-58
2023/04/07 11:43:19;;;;;;;11.17;10.77;;;23.20;50.50;;;;;;5095233;28;20463;-55
2023/04/07 11:45:46;;;;;;;10.70;10.37;;;23.20;50.50;;;;;;5094866;28;20572;-57
2023/04/07 11:48:30;;;;;;;10.90;10.60;;;23.20;50.50;;;;;;5095125;28;20446;-58
2023/04/07 11:50:59;;;;;;;10.67;10.37;;;23.20;50.90;;;;;;5094998;28;20481;-57
2023/04/07 11:53:27;;;;;;;10.90;10.50;;;23.20;51.00;;;;;;5094844;28;20494;-59
2023/04/07 11:56:02;;;;;;;10.93;10.63;;;23.20;51.10;;;;;;5094763;28;20465;-59
2023/04/07 11:58:28;;;;;;;10.00;9.80;;;23.20;51.00;;;;;;5094547;28;20469;-58
2023/04/07 12:00:56;;;;;;;11.17;10.60;;;23.20;51.00;;;;;;5094929;28;20482;-58
2023/04/07 12:03:23;;;;;;;11.23;10.93;;;23.20;50.90;;;;;;5094455;28;20470;-59
2023/04/07 12:05:51;;;;;;;10.20;10.00;;;23.20;50.90;;;;;;5094893;28;20482;-61
2023/04/07 12:08:20;;;;;;;10.97;10.60;;;23.20;50.90;;;;;;5094427;28;20812;-60
2023/04/07 12:10:47;;;;;;;10.10;9.80;;;23.20;50.90;;;;;;5094815;28;20446;-56
2023/04/07 12:13:14;;;;;;;9.70;9.40;;;23.20;51.00;;;;;;5082265;28;20526;-57
2023/04/07 12:15:41;;;;;;;9.60;9.40;;;23.20;50.60;;;;;;5074548;28;20475;-57
2023/04/07 12:18:08;;;;;;;9.60;9.40;;;23.10;50.20;;;;;;5074203;28;20459;-57
2023/04/07 12:20:35;;;;;;;9.47;9.27;;;23.10;50.10;;;;;;5074403;28;20508;-58
2023/04/07 12:23:02;;;;;;;9.57;9.37;;;23.10;50.00;;;;;;5083638;28;20549;-55
2023/04/07 12:25:30;;;;;;;10.23;9.93;;;23.00;49.80;;;;;;5094180;28;20485;-57
2023/04/07 12:27:57;;;;;;;9.70;9.40;;;23.00;49.80;;;;;;5093725;28;20450;-54
2023/04/07 12:30:24;;;;;;;9.33;9.13;;;23.00;49.80;;;;;;5093886;28;20485;-56
2023/04/07 12:32:51;;;;;;;10.20;10.00;;;23.00;49.70;;;;;;5094339;28;20533;-56
2023/04/07 12:35:18;;;;;;;10.40;10.10;;;23.00;49.70;;;;;;5094036;28;20439;-55
2023/04/07 12:37:46;;;;;;;9.83;9.53;;;22.90;49.60;;;;;;5094114;28;20446;-55
2023/04/07 12:40:14;;;;;;;10.80;10.50;;;22.90;49.60;;;;;;5094234;28;20473;-58
2023/04/07 12:42:43;;;;;;;10.03;9.73;;;22.90;49.60;;;;;;5053614;28;20440;-58
2023/04/07 12:45:10;;;;;;;9.20;9.00;;;22.90;49.60;;;;;;5053474;28;20475;-57
2023/04/07 12:47:37;;;;;;;10.07;9.77;;;22.80;49.50;;;;;;5053937;28;20522;-55
2023/04/07 12:50:04;;;;;;;9.97;9.77;;;22.80;49.50;;;;;;5053693;28;20480;-57
2023/04/07 12:52:31;;;;;;;9.50;9.30;;;22.70;49.50;;;;;;5061888;28;20492;-54